sensor_id;sensor_type;location;lat;lon;timestamp;P1;durP1;ratioP1;P2;durP2;ratioP2
9807;SDS011;4943;52.550;13.462;2022-09-17T00:01:28;3.30;;;1.90;;
9807;SDS011;4943;52.550;13.462;2022-09-17T00:03:58;2.47;;;1.50;;
9807;SDS011;4943;52.550;13.462;2022-09-17T00:06:30;4.10;;;1.40;;
9807;SDS011;4943;52.550;13.462;2022-09-17T00:08:59;3.37;;;1.70;;
9807;SDS011;4943;52.550;13.462;2022-09-17T00:11:29;3.17;;;1.53;;
9807;SDS011;4943;52.550;13.462;2022-09-17T00:13:59;4.67;;;1.67;;
9807;SDS011;4943;52.550;13.462;2022-09-17T00:16:33;4.93;;;1.60;;
9807;SDS011;4943;52.550;13.462;2022-09-17T00:19:03;1.90;;;1.42;;
9807;SDS011;4943;52.550;13.462;2022-09-17T00:21:33;4.83;;;2.00;;
9807;SDS011;4943;52.550;13.462;2022-09-17T00:24:04;4.00;;;1.50;;
9807;SDS011;4943;52.550;13.462;2022-09-17T00:26:33;4.53;;;1.73;;
9807;SDS011;4943;52.550;13.462;2022-09-17T00:29:02;3.97;;;1.80;;
9807;SDS011;4943;52.550;13.462;2022-09-17T00:31:32;3.43;;;1.70;;
9807;SDS011;4943;52.550;13.462;2022-09-17T00:34:02;3.73;;;1.53;;
9807;SDS011;4943;52.550;13.462;2022-09-17T00:36:33;7.80;;;1.60;;
9807;SDS011;4943;52.550;13.462;2022-09-17T00:39:02;3.17;;;2.00;;
9807;SDS011;4943;52.550;13.462;2022-09-17T00:41:33;3.57;;;1.80;;
9807;SDS011;4943;52.550;13.462;2022-09-17T00:47:05;3.57;;;1.80;;
9807;SDS011;4943;52.550;13.462;2022-09-17T00:49:40;4.37;;;1.60;;
9807;SDS011;4943;52.550;13.462;2022-09-17T00:52:10;8.63;;;2.37;;
9807;SDS011;4943;52.550;13.462;2022-09-17T00:54:41;2.90;;;1.90;;
9807;SDS011;4943;52.550;13.462;2022-09-17T00:57:14;9.17;;;2.03;;
9807;SDS011;4943;52.550;13.462;2022-09-17T00:59:42;3.03;;;2.10;;
9807;SDS011;4943;52.550;13.462;2022-09-17T01:02:12;3.90;;;2.10;;
9807;SDS011;4943;52.550;13.462;2022-09-17T01:04:41;7.60;;;2.00;;
9807;SDS011;4943;52.550;13.462;2022-09-17T01:07:10;4.30;;;1.50;;
9807;SDS011;4943;52.550;13.462;2022-09-17T01:09:46;10.07;;;1.97;;
9807;SDS011;4943;52.550;13.462;2022-09-17T01:12:26;5.03;;;1.80;;
9807;SDS011;4943;52.550;13.462;2022-09-17T01:15:08;6.03;;;1.87;;
9807;SDS011;4943;52.550;13.462;2022-09-17T01:17:53;6.07;;;2.23;;
9807;SDS011;4943;52.550;13.462;2022-09-17T01:20:49;2.53;;;1.50;;
9807;SDS011;4943;52.550;13.462;2022-09-17T01:23:41;3.97;;;1.80;;
9807;SDS011;4943;52.550;13.462;2022-09-17T01:26:44;4.57;;;1.47;;
9807;SDS011;4943;52.550;13.462;2022-09-17T01:29:36;3.45;;;2.13;;
9807;SDS011;4943;52.550;13.462;2022-09-17T01:32:21;2.43;;;1.70;;
9807;SDS011;4943;52.550;13.462;2022-09-17T01:34:54;2.67;;;1.50;;
9807;SDS011;4943;52.550;13.462;2022-09-17T01:37:29;5.33;;;2.00;;
9807;SDS011;4943;52.550;13.462;2022-09-17T01:39:59;6.83;;;1.70;;
9807;SDS011;4943;52.550;13.462;2022-09-17T01:42:34;2.73;;;1.73;;
9807;SDS011;4943;52.550;13.462;2022-09-17T01:45:07;2.03;;;1.70;;
9807;SDS011;4943;52.550;13.462;2022-09-17T01:47:43;5.13;;;1.67;;
9807;SDS011;4943;52.550;13.462;2022-09-17T01:50:17;4.28;;;1.83;;
9807;SDS011;4943;52.550;13.462;2022-09-17T01:52:49;3.10;;;1.93;;
9807;SDS011;4943;52.550;13.462;2022-09-17T01:55:23;4.07;;;1.60;;
9807;SDS011;4943;52.550;13.462;2022-09-17T01:57:56;4.03;;;1.87;;
9807;SDS011;4943;52.550;13.462;2022-09-17T02:00:28;4.23;;;2.00;;
9807;SDS011;4943;52.550;13.462;2022-09-17T02:02:58;3.50;;;1.90;;
9807;SDS011;4943;52.550;13.462;2022-09-17T02:05:31;6.47;;;1.60;;
9807;SDS011;4943;52.550;13.462;2022-09-17T02:08:07;6.03;;;2.07;;
9807;SDS011;4943;52.550;13.462;2022-09-17T02:10:38;3.50;;;2.00;;
9807;SDS011;4943;52.550;13.462;2022-09-17T02:13:12;5.57;;;1.67;;
9807;SDS011;4943;52.550;13.462;2022-09-17T02:15:47;4.50;;;1.97;;
9807;SDS011;4943;52.550;13.462;2022-09-17T02:18:21;3.63;;;1.70;;
9807;SDS011;4943;52.550;13.462;2022-09-17T02:20:54;4.67;;;2.00;;
9807;SDS011;4943;52.550;13.462;2022-09-17T02:23:32;3.10;;;1.90;;
9807;SDS011;4943;52.550;13.462;2022-09-17T02:26:03;3.27;;;1.87;;
9807;SDS011;4943;52.550;13.462;2022-09-17T02:28:37;3.30;;;1.77;;
9807;SDS011;4943;52.550;13.462;2022-09-17T02:31:09;3.47;;;1.83;;
9807;SDS011;4943;52.550;13.462;2022-09-17T02:33:40;6.53;;;2.27;;
9807;SDS011;4943;52.550;13.462;2022-09-17T02:36:10;5.07;;;2.07;;
9807;SDS011;4943;52.550;13.462;2022-09-17T02:38:39;8.67;;;2.80;;
9807;SDS011;4943;52.550;13.462;2022-09-17T02:41:11;6.60;;;3.17;;
9807;SDS011;4943;52.550;13.462;2022-09-17T02:43:48;7.40;;;3.50;;
9807;SDS011;4943;52.550;13.462;2022-09-17T02:46:26;8.63;;;3.73;;
9807;SDS011;4943;52.550;13.462;2022-09-17T02:49:12;13.30;;;4.90;;
9807;SDS011;4943;52.550;13.462;2022-09-17T02:51:50;9.70;;;4.80;;
9807;SDS011;4943;52.550;13.462;2022-09-17T02:54:28;7.93;;;4.93;;
9807;SDS011;4943;52.550;13.462;2022-09-17T02:57:04;9.63;;;5.17;;
9807;SDS011;4943;52.550;13.462;2022-09-17T02:59:40;8.67;;;5.13;;
9807;SDS011;4943;52.550;13.462;2022-09-17T03:02:15;6.73;;;5.00;;
9807;SDS011;4943;52.550;13.462;2022-09-17T03:04:48;6.23;;;4.90;;
9807;SDS011;4943;52.550;13.462;2022-09-17T03:07:18;10.97;;;4.80;;
9807;SDS011;4943;52.550;13.462;2022-09-17T03:09:47;8.07;;;4.10;;
9807;SDS011;4943;52.550;13.462;2022-09-17T03:12:15;7.27;;;4.40;;
9807;SDS011;4943;52.550;13.462;2022-09-17T03:14:43;5.70;;;3.83;;
9807;SDS011;4943;52.550;13.462;2022-09-17T03:17:12;12.77;;;3.80;;
9807;SDS011;4943;52.550;13.462;2022-09-17T03:19:40;10.03;;;3.80;;
9807;SDS011;4943;52.550;13.462;2022-09-17T03:22:09;7.27;;;3.50;;
9807;SDS011;4943;52.550;13.462;2022-09-17T03:24:37;8.20;;;3.10;;
9807;SDS011;4943;52.550;13.462;2022-09-17T03:27:06;8.93;;;3.17;;
9807;SDS011;4943;52.550;13.462;2022-09-17T03:29:34;7.33;;;3.13;;
9807;SDS011;4943;52.550;13.462;2022-09-17T03:32:02;7.53;;;2.87;;
9807;SDS011;4943;52.550;13.462;2022-09-17T03:34:30;4.17;;;2.40;;
9807;SDS011;4943;52.550;13.462;2022-09-17T03:36:59;10.03;;;2.83;;
9807;SDS011;4943;52.550;13.462;2022-09-17T03:39:29;5.77;;;2.53;;
9807;SDS011;4943;52.550;13.462;2022-09-17T03:41:57;5.30;;;2.60;;
9807;SDS011;4943;52.550;13.462;2022-09-17T03:44:25;5.13;;;2.80;;
9807;SDS011;4943;52.550;13.462;2022-09-17T03:46:53;3.73;;;2.23;;
9807;SDS011;4943;52.550;13.462;2022-09-17T03:49:22;9.93;;;2.33;;
9807;SDS011;4943;52.550;13.462;2022-09-17T03:51:50;5.60;;;2.53;;
9807;SDS011;4943;52.550;13.462;2022-09-17T03:54:18;4.43;;;2.30;;
9807;SDS011;4943;52.550;13.462;2022-09-17T03:56:47;5.70;;;2.30;;
9807;SDS011;4943;52.550;13.462;2022-09-17T03:59:16;7.50;;;2.53;;
9807;SDS011;4943;52.550;13.462;2022-09-17T04:01:44;4.43;;;2.10;;
9807;SDS011;4943;52.550;13.462;2022-09-17T04:04:12;7.90;;;2.70;;
9807;SDS011;4943;52.550;13.462;2022-09-17T04:06:40;3.60;;;2.23;;
9807;SDS011;4943;52.550;13.462;2022-09-17T04:09:08;4.13;;;1.83;;
9807;SDS011;4943;52.550;13.462;2022-09-17T04:11:36;4.03;;;1.87;;
9807;SDS011;4943;52.550;13.462;2022-09-17T04:14:05;6.10;;;2.03;;
9807;SDS011;4943;52.550;13.462;2022-09-17T04:16:34;5.50;;;2.10;;
9807;SDS011;4943;52.550;13.462;2022-09-17T04:19:02;3.13;;;2.00;;
9807;SDS011;4943;52.550;13.462;2022-09-17T04:21:30;6.13;;;2.60;;
9807;SDS011;4943;52.550;13.462;2022-09-17T04:23:58;3.30;;;1.60;;
9807;SDS011;4943;52.550;13.462;2022-09-17T04:26:26;4.57;;;2.17;;
9807;SDS011;4943;52.550;13.462;2022-09-17T04:28:54;5.30;;;2.20;;
9807;SDS011;4943;52.550;13.462;2022-09-17T04:31:24;3.63;;;2.17;;
9807;SDS011;4943;52.550;13.462;2022-09-17T04:33:52;5.40;;;1.90;;
9807;SDS011;4943;52.550;13.462;2022-09-17T04:36:20;4.80;;;2.17;;
9807;SDS011;4943;52.550;13.462;2022-09-17T04:38:48;9.40;;;2.70;;
9807;SDS011;4943;52.550;13.462;2022-09-17T04:41:17;8.03;;;2.70;;
9807;SDS011;4943;52.550;13.462;2022-09-17T04:43:45;4.03;;;2.20;;
9807;SDS011;4943;52.550;13.462;2022-09-17T04:46:13;5.90;;;2.47;;
9807;SDS011;4943;52.550;13.462;2022-09-17T04:48:43;7.90;;;2.23;;
9807;SDS011;4943;52.550;13.462;2022-09-17T04:51:11;4.20;;;2.47;;
9807;SDS011;4943;52.550;13.462;2022-09-17T04:53:39;4.67;;;2.40;;
9807;SDS011;4943;52.550;13.462;2022-09-17T04:56:07;3.63;;;1.90;;
9807;SDS011;4943;52.550;13.462;2022-09-17T04:58:35;4.83;;;2.27;;
9807;SDS011;4943;52.550;13.462;2022-09-17T05:01:04;10.97;;;2.40;;
9807;SDS011;4943;52.550;13.462;2022-09-17T05:03:32;5.07;;;2.03;;
9807;SDS011;4943;52.550;13.462;2022-09-17T05:06:02;6.90;;;2.50;;
9807;SDS011;4943;52.550;13.462;2022-09-17T05:08:30;5.13;;;2.30;;
9807;SDS011;4943;52.550;13.462;2022-09-17T05:10:58;5.63;;;2.20;;
9807;SDS011;4943;52.550;13.462;2022-09-17T05:13:26;5.03;;;1.93;;
9807;SDS011;4943;52.550;13.462;2022-09-17T05:15:54;5.97;;;1.87;;
9807;SDS011;4943;52.550;13.462;2022-09-17T05:18:23;7.03;;;1.85;;
9807;SDS011;4943;52.550;13.462;2022-09-17T05:20:51;4.67;;;1.90;;
9807;SDS011;4943;52.550;13.462;2022-09-17T05:23:21;3.10;;;1.40;;
9807;SDS011;4943;52.550;13.462;2022-09-17T05:25:49;2.97;;;2.00;;
9807;SDS011;4943;52.550;13.462;2022-09-17T05:28:18;6.27;;;2.30;;
9807;SDS011;4943;52.550;13.462;2022-09-17T05:30:46;6.00;;;2.00;;
9807;SDS011;4943;52.550;13.462;2022-09-17T05:33:14;4.63;;;1.87;;
9807;SDS011;4943;52.550;13.462;2022-09-17T05:35:42;7.90;;;2.43;;
9807;SDS011;4943;52.550;13.462;2022-09-17T05:38:10;8.77;;;1.83;;
9807;SDS011;4943;52.550;13.462;2022-09-17T05:40:41;8.13;;;2.43;;
9807;SDS011;4943;52.550;13.462;2022-09-17T05:43:09;5.33;;;1.87;;
9807;SDS011;4943;52.550;13.462;2022-09-17T05:45:37;4.43;;;2.13;;
9807;SDS011;4943;52.550;13.462;2022-09-17T05:48:06;6.07;;;2.23;;
9807;SDS011;4943;52.550;13.462;2022-09-17T05:50:37;6.17;;;1.80;;
9807;SDS011;4943;52.550;13.462;2022-09-17T05:53:07;4.60;;;1.80;;
9807;SDS011;4943;52.550;13.462;2022-09-17T05:55:38;6.18;;;2.15;;
9807;SDS011;4943;52.550;13.462;2022-09-17T05:58:11;2.80;;;1.67;;
9807;SDS011;4943;52.550;13.462;2022-09-17T06:00:40;7.60;;;2.20;;
9807;SDS011;4943;52.550;13.462;2022-09-17T06:03:09;6.17;;;2.00;;
9807;SDS011;4943;52.550;13.462;2022-09-17T06:05:39;4.32;;;1.92;;
9807;SDS011;4943;52.550;13.462;2022-09-17T06:08:07;5.57;;;2.17;;
9807;SDS011;4943;52.550;13.462;2022-09-17T06:10:35;3.20;;;1.80;;
9807;SDS011;4943;52.550;13.462;2022-09-17T06:13:04;6.77;;;2.27;;
9807;SDS011;4943;52.550;13.462;2022-09-17T06:15:35;7.28;;;2.28;;
9807;SDS011;4943;52.550;13.462;2022-09-17T06:18:03;7.45;;;2.22;;
9807;SDS011;4943;52.550;13.462;2022-09-17T06:20:31;9.13;;;2.78;;
9807;SDS011;4943;52.550;13.462;2022-09-17T06:22:59;8.27;;;2.40;;
9807;SDS011;4943;52.550;13.462;2022-09-17T06:25:27;8.40;;;2.40;;
9807;SDS011;4943;52.550;13.462;2022-09-17T06:27:57;8.85;;;2.08;;
9807;SDS011;4943;52.550;13.462;2022-09-17T06:30:25;8.90;;;2.70;;
9807;SDS011;4943;52.550;13.462;2022-09-17T06:32:56;6.20;;;2.60;;
9807;SDS011;4943;52.550;13.462;2022-09-17T06:35:26;6.05;;;2.17;;
9807;SDS011;4943;52.550;13.462;2022-09-17T06:37:54;11.20;;;2.42;;
9807;SDS011;4943;52.550;13.462;2022-09-17T06:40:23;6.50;;;2.73;;
9807;SDS011;4943;52.550;13.462;2022-09-17T06:42:55;9.65;;;2.58;;
9807;SDS011;4943;52.550;13.462;2022-09-17T06:45:23;5.78;;;2.72;;
9807;SDS011;4943;52.550;13.462;2022-09-17T06:47:52;8.73;;;2.28;;
9807;SDS011;4943;52.550;13.462;2022-09-17T06:50:21;5.72;;;2.38;;
9807;SDS011;4943;52.550;13.462;2022-09-17T06:52:53;8.18;;;3.08;;
9807;SDS011;4943;52.550;13.462;2022-09-17T06:55:24;8.05;;;2.95;;
9807;SDS011;4943;52.550;13.462;2022-09-17T06:57:57;6.78;;;2.55;;
9807;SDS011;4943;52.550;13.462;2022-09-17T07:00:29;9.60;;;3.25;;
9807;SDS011;4943;52.550;13.462;2022-09-17T07:02:58;8.20;;;2.55;;
9807;SDS011;4943;52.550;13.462;2022-09-17T07:05:28;4.65;;;2.25;;
9807;SDS011;4943;52.550;13.462;2022-09-17T07:07:59;7.95;;;2.38;;
9807;SDS011;4943;52.550;13.462;2022-09-17T07:10:28;10.13;;;2.50;;
9807;SDS011;4943;52.550;13.462;2022-09-17T07:12:57;8.82;;;2.53;;
9807;SDS011;4943;52.550;13.462;2022-09-17T07:15:25;10.43;;;2.43;;
9807;SDS011;4943;52.550;13.462;2022-09-17T07:17:53;9.45;;;2.40;;
9807;SDS011;4943;52.550;13.462;2022-09-17T07:20:21;14.65;;;2.50;;
9807;SDS011;4943;52.550;13.462;2022-09-17T07:22:57;6.75;;;2.38;;
9807;SDS011;4943;52.550;13.462;2022-09-17T07:25:25;7.57;;;2.65;;
9807;SDS011;4943;52.550;13.462;2022-09-17T07:27:53;8.88;;;2.80;;
9807;SDS011;4943;52.550;13.462;2022-09-17T07:30:22;6.28;;;2.50;;
9807;SDS011;4943;52.550;13.462;2022-09-17T07:32:50;9.10;;;2.90;;
9807;SDS011;4943;52.550;13.462;2022-09-17T07:35:18;5.47;;;2.30;;
9807;SDS011;4943;52.550;13.462;2022-09-17T07:37:46;8.20;;;2.15;;
9807;SDS011;4943;52.550;13.462;2022-09-17T07:40:16;8.93;;;2.65;;
9807;SDS011;4943;52.550;13.462;2022-09-17T07:42:44;6.03;;;1.88;;
9807;SDS011;4943;52.550;13.462;2022-09-17T07:45:12;11.75;;;2.70;;
9807;SDS011;4943;52.550;13.462;2022-09-17T07:47:40;7.50;;;2.13;;
9807;SDS011;4943;52.550;13.462;2022-09-17T07:50:09;10.85;;;2.55;;
9807;SDS011;4943;52.550;13.462;2022-09-17T07:52:37;11.63;;;2.05;;
9807;SDS011;4943;52.550;13.462;2022-09-17T07:55:11;9.70;;;2.58;;
9807;SDS011;4943;52.550;13.462;2022-09-17T07:57:41;2.38;;;1.65;;
9807;SDS011;4943;52.550;13.462;2022-09-17T08:00:10;12.32;;;2.17;;
9807;SDS011;4943;52.550;13.462;2022-09-17T08:02:39;4.40;;;1.50;;
9807;SDS011;4943;52.550;13.462;2022-09-17T08:05:08;7.70;;;2.13;;
9807;SDS011;4943;52.550;13.462;2022-09-17T08:07:37;8.52;;;1.88;;
9807;SDS011;4943;52.550;13.462;2022-09-17T08:10:05;10.55;;;2.38;;
9807;SDS011;4943;52.550;13.462;2022-09-17T08:12:34;9.00;;;1.80;;
9807;SDS011;4943;52.550;13.462;2022-09-17T08:15:04;10.77;;;2.03;;
9807;SDS011;4943;52.550;13.462;2022-09-17T08:17:33;8.38;;;1.80;;
9807;SDS011;4943;52.550;13.462;2022-09-17T08:20:03;8.73;;;2.05;;
9807;SDS011;4943;52.550;13.462;2022-09-17T08:22:32;8.50;;;2.28;;
9807;SDS011;4943;52.550;13.462;2022-09-17T08:25:00;8.65;;;2.22;;
9807;SDS011;4943;52.550;13.462;2022-09-17T08:27:29;7.03;;;2.05;;
9807;SDS011;4943;52.550;13.462;2022-09-17T08:29:58;5.93;;;1.63;;
9807;SDS011;4943;52.550;13.462;2022-09-17T08:32:28;9.95;;;2.67;;
9807;SDS011;4943;52.550;13.462;2022-09-17T08:34:57;10.85;;;2.15;;
9807;SDS011;4943;52.550;13.462;2022-09-17T08:37:25;5.38;;;1.75;;
9807;SDS011;4943;52.550;13.462;2022-09-17T08:39:55;7.28;;;2.22;;
9807;SDS011;4943;52.550;13.462;2022-09-17T08:42:25;6.00;;;1.75;;
9807;SDS011;4943;52.550;13.462;2022-09-17T08:44:58;6.47;;;1.80;;
9807;SDS011;4943;52.550;13.462;2022-09-17T08:47:32;7.97;;;2.10;;
9807;SDS011;4943;52.550;13.462;2022-09-17T08:50:03;3.10;;;1.75;;
9807;SDS011;4943;52.550;13.462;2022-09-17T08:52:40;4.95;;;1.75;;
9807;SDS011;4943;52.550;13.462;2022-09-17T08:55:26;4.90;;;2.13;;
9807;SDS011;4943;52.550;13.462;2022-09-17T08:58:04;5.80;;;1.80;;
9807;SDS011;4943;52.550;13.462;2022-09-17T09:00:49;3.28;;;1.80;;
9807;SDS011;4943;52.550;13.462;2022-09-17T09:03:29;4.97;;;2.00;;
9807;SDS011;4943;52.550;13.462;2022-09-17T09:06:04;7.45;;;1.98;;
9807;SDS011;4943;52.550;13.462;2022-09-17T09:08:36;8.18;;;1.70;;
9807;SDS011;4943;52.550;13.462;2022-09-17T09:11:10;4.40;;;1.60;;
9807;SDS011;4943;52.550;13.462;2022-09-17T09:13:42;9.57;;;2.08;;
9807;SDS011;4943;52.550;13.462;2022-09-17T09:16:14;3.67;;;1.42;;
9807;SDS011;4943;52.550;13.462;2022-09-17T09:18:45;8.82;;;1.80;;
9807;SDS011;4943;52.550;13.462;2022-09-17T09:21:20;6.75;;;1.80;;
9807;SDS011;4943;52.550;13.462;2022-09-17T09:23:54;7.82;;;2.22;;
9807;SDS011;4943;52.550;13.462;2022-09-17T09:26:33;6.82;;;2.00;;
9807;SDS011;4943;52.550;13.462;2022-09-17T09:29:12;5.38;;;1.85;;
9807;SDS011;4943;52.550;13.462;2022-09-17T09:31:57;8.35;;;1.77;;
9807;SDS011;4943;52.550;13.462;2022-09-17T09:34:42;5.18;;;2.05;;
9807;SDS011;4943;52.550;13.462;2022-09-17T09:37:13;5.60;;;2.05;;
9807;SDS011;4943;52.550;13.462;2022-09-17T09:39:44;6.57;;;1.95;;
9807;SDS011;4943;52.550;13.462;2022-09-17T09:42:21;9.05;;;1.95;;
9807;SDS011;4943;52.550;13.462;2022-09-17T09:44:56;7.97;;;2.08;;
9807;SDS011;4943;52.550;13.462;2022-09-17T09:47:37;6.50;;;1.50;;
9807;SDS011;4943;52.550;13.462;2022-09-17T09:50:26;7.78;;;1.90;;
9807;SDS011;4943;52.550;13.462;2022-09-17T09:53:26;7.38;;;1.98;;
9807;SDS011;4943;52.550;13.462;2022-09-17T09:56:10;7.03;;;1.67;;
9807;SDS011;4943;52.550;13.462;2022-09-17T09:58:54;7.43;;;1.95;;
9807;SDS011;4943;52.550;13.462;2022-09-17T10:01:24;9.43;;;2.17;;
9807;SDS011;4943;52.550;13.462;2022-09-17T10:03:55;9.82;;;1.45;;
9807;SDS011;4943;52.550;13.462;2022-09-17T10:06:27;5.90;;;1.95;;
9807;SDS011;4943;52.550;13.462;2022-09-17T10:09:10;5.05;;;1.60;;
9807;SDS011;4943;52.550;13.462;2022-09-17T10:11:39;6.55;;;2.00;;
9807;SDS011;4943;52.550;13.462;2022-09-17T10:14:21;3.78;;;1.42;;
9807;SDS011;4943;52.550;13.462;2022-09-17T10:16:56;6.07;;;1.35;;
9807;SDS011;4943;52.550;13.462;2022-09-17T10:19:45;5.65;;;1.67;;
9807;SDS011;4943;52.550;13.462;2022-09-17T10:22:19;5.10;;;1.30;;
9807;SDS011;4943;52.550;13.462;2022-09-17T10:24:52;5.82;;;2.22;;
9807;SDS011;4943;52.550;13.462;2022-09-17T10:27:22;3.10;;;1.30;;
9807;SDS011;4943;52.550;13.462;2022-09-17T10:29:54;4.38;;;1.50;;
9807;SDS011;4943;52.550;13.462;2022-09-17T10:32:29;6.72;;;1.50;;
9807;SDS011;4943;52.550;13.462;2022-09-17T10:34:58;6.82;;;1.73;;
9807;SDS011;4943;52.550;13.462;2022-09-17T10:37:42;6.03;;;1.75;;
9807;SDS011;4943;52.550;13.462;2022-09-17T10:40:23;2.85;;;0.95;;
9807;SDS011;4943;52.550;13.462;2022-09-17T10:45:44;5.28;;;1.38;;
9807;SDS011;4943;52.550;13.462;2022-09-17T10:48:22;5.75;;;1.90;;
9807;SDS011;4943;52.550;13.462;2022-09-17T10:50:54;4.18;;;1.50;;
9807;SDS011;4943;52.550;13.462;2022-09-17T10:53:24;3.92;;;1.52;;
9807;SDS011;4943;52.550;13.462;2022-09-17T10:55:54;5.63;;;1.60;;
9807;SDS011;4943;52.550;13.462;2022-09-17T10:58:34;6.25;;;1.60;;
9807;SDS011;4943;52.550;13.462;2022-09-17T11:01:13;8.27;;;2.50;;
9807;SDS011;4943;52.550;13.462;2022-09-17T11:03:58;8.75;;;2.05;;
9807;SDS011;4943;52.550;13.462;2022-09-17T11:06:48;3.83;;;1.85;;
9807;SDS011;4943;52.550;13.462;2022-09-17T11:09:31;9.63;;;1.92;;
9807;SDS011;4943;52.550;13.462;2022-09-17T11:12:16;3.72;;;1.67;;
9807;SDS011;4943;52.550;13.462;2022-09-17T11:14:54;6.80;;;1.98;;
9807;SDS011;4943;52.550;13.462;2022-09-17T11:17:34;3.35;;;1.67;;
9807;SDS011;4943;52.550;13.462;2022-09-17T11:20:16;6.03;;;1.85;;
9807;SDS011;4943;52.550;13.462;2022-09-17T11:22:55;2.42;;;1.40;;
9807;SDS011;4943;52.550;13.462;2022-09-17T11:25:37;4.15;;;1.55;;
9807;SDS011;4943;52.550;13.462;2022-09-17T11:28:15;8.02;;;1.80;;
9807;SDS011;4943;52.550;13.462;2022-09-17T11:30:55;2.83;;;1.70;;
9807;SDS011;4943;52.550;13.462;2022-09-17T11:33:42;3.25;;;1.20;;
9807;SDS011;4943;52.550;13.462;2022-09-17T11:36:21;4.40;;;1.40;;
9807;SDS011;4943;52.550;13.462;2022-09-17T11:38:52;3.72;;;1.25;;
9807;SDS011;4943;52.550;13.462;2022-09-17T11:41:26;4.55;;;1.25;;
9807;SDS011;4943;52.550;13.462;2022-09-17T11:43:59;2.95;;;1.30;;
9807;SDS011;4943;52.550;13.462;2022-09-17T11:46:36;7.85;;;1.40;;
9807;SDS011;4943;52.550;13.462;2022-09-17T11:49:09;5.88;;;1.30;;
9807;SDS011;4943;52.550;13.462;2022-09-17T11:51:42;3.80;;;1.30;;
9807;SDS011;4943;52.550;13.462;2022-09-17T11:54:18;4.90;;;1.85;;
9807;SDS011;4943;52.550;13.462;2022-09-17T11:56:53;3.03;;;1.65;;
9807;SDS011;4943;52.550;13.462;2022-09-17T11:59:36;4.63;;;1.73;;
9807;SDS011;4943;52.550;13.462;2022-09-17T12:02:13;3.03;;;1.48;;
9807;SDS011;4943;52.550;13.462;2022-09-17T12:04:48;5.05;;;1.83;;
9807;SDS011;4943;52.550;13.462;2022-09-17T12:07:34;4.88;;;1.40;;
9807;SDS011;4943;52.550;13.462;2022-09-17T12:10:16;2.80;;;1.60;;
9807;SDS011;4943;52.550;13.462;2022-09-17T12:12:58;4.47;;;1.13;;
9807;SDS011;4943;52.550;13.462;2022-09-17T12:15:34;3.25;;;1.40;;
9807;SDS011;4943;52.550;13.462;2022-09-17T12:18:11;4.85;;;1.52;;
9807;SDS011;4943;52.550;13.462;2022-09-17T12:20:58;4.35;;;1.88;;
9807;SDS011;4943;52.550;13.462;2022-09-17T12:23:32;5.82;;;1.40;;
9807;SDS011;4943;52.550;13.462;2022-09-17T12:26:08;5.35;;;1.38;;
9807;SDS011;4943;52.550;13.462;2022-09-17T12:28:48;3.30;;;0.93;;
9807;SDS011;4943;52.550;13.462;2022-09-17T12:31:25;2.15;;;0.90;;
9807;SDS011;4943;52.550;13.462;2022-09-17T12:34:12;1.33;;;0.70;;
9807;SDS011;4943;52.550;13.462;2022-09-17T12:36:50;2.92;;;0.90;;
9807;SDS011;4943;52.550;13.462;2022-09-17T12:42:30;3.10;;;0.85;;
9807;SDS011;4943;52.550;13.462;2022-09-17T12:45:22;5.50;;;0.90;;
9807;SDS011;4943;52.550;13.462;2022-09-17T12:48:06;6.25;;;0.93;;
9807;SDS011;4943;52.550;13.462;2022-09-17T12:50:49;3.35;;;0.98;;
9807;SDS011;4943;52.550;13.462;2022-09-17T12:53:26;3.90;;;0.80;;
9807;SDS011;4943;52.550;13.462;2022-09-17T12:55:59;2.17;;;0.77;;
9807;SDS011;4943;52.550;13.462;2022-09-17T12:58:39;6.70;;;1.30;;
9807;SDS011;4943;52.550;13.462;2022-09-17T13:01:19;3.30;;;1.10;;
9807;SDS011;4943;52.550;13.462;2022-09-17T13:03:56;3.72;;;0.98;;
9807;SDS011;4943;52.550;13.462;2022-09-17T13:06:41;2.50;;;1.02;;
9807;SDS011;4943;52.550;13.462;2022-09-17T13:09:46;2.33;;;0.80;;
9807;SDS011;4943;52.550;13.462;2022-09-17T13:12:26;2.95;;;1.02;;
9807;SDS011;4943;52.550;13.462;2022-09-17T13:15:05;4.05;;;0.90;;
9807;SDS011;4943;52.550;13.462;2022-09-17T13:17:50;5.05;;;1.60;;
9807;SDS011;4943;52.550;13.462;2022-09-17T13:20:48;2.35;;;0.90;;
9807;SDS011;4943;52.550;13.462;2022-09-17T13:23:28;2.28;;;0.75;;
9807;SDS011;4943;52.550;13.462;2022-09-17T13:26:04;2.97;;;0.80;;
9807;SDS011;4943;52.550;13.462;2022-09-17T13:28:37;2.70;;;0.77;;
9807;SDS011;4943;52.550;13.462;2022-09-17T13:34:27;1.83;;;0.93;;
9807;SDS011;4943;52.550;13.462;2022-09-17T13:36:57;3.70;;;0.93;;
9807;SDS011;4943;52.550;13.462;2022-09-17T13:39:34;4.15;;;1.25;;
9807;SDS011;4943;52.550;13.462;2022-09-17T13:42:09;3.10;;;1.05;;
9807;SDS011;4943;52.550;13.462;2022-09-17T13:44:45;3.15;;;0.93;;
9807;SDS011;4943;52.550;13.462;2022-09-17T13:47:17;3.60;;;1.25;;
9807;SDS011;4943;52.550;13.462;2022-09-17T13:49:51;2.70;;;1.15;;
9807;SDS011;4943;52.550;13.462;2022-09-17T13:52:30;4.38;;;1.13;;
9807;SDS011;4943;52.550;13.462;2022-09-17T13:55:01;4.38;;;0.93;;
9807;SDS011;4943;52.550;13.462;2022-09-17T13:57:30;3.78;;;0.93;;
9807;SDS011;4943;52.550;13.462;2022-09-17T14:09:30;3.10;;;1.08;;
9807;SDS011;4943;52.550;13.462;2022-09-17T14:18:00;3.53;;;1.15;;
9807;SDS011;4943;52.550;13.462;2022-09-17T14:20:31;1.27;;;0.82;;
9807;SDS011;4943;52.550;13.462;2022-09-17T14:23:02;4.18;;;1.02;;
9807;SDS011;4943;52.550;13.462;2022-09-17T14:25:31;1.55;;;0.98;;
9807;SDS011;4943;52.550;13.462;2022-09-17T14:28:10;3.15;;;1.08;;
9807;SDS011;4943;52.550;13.462;2022-09-17T14:30:43;2.17;;;1.00;;
9807;SDS011;4943;52.550;13.462;2022-09-17T14:33:12;6.57;;;1.42;;
9807;SDS011;4943;52.550;13.462;2022-09-17T14:35:44;3.35;;;1.20;;
9807;SDS011;4943;52.550;13.462;2022-09-17T14:38:18;2.17;;;1.17;;
9807;SDS011;4943;52.550;13.462;2022-09-17T14:40:48;2.90;;;0.90;;
9807;SDS011;4943;52.550;13.462;2022-09-17T14:43:26;1.90;;;0.82;;
9807;SDS011;4943;52.550;13.462;2022-09-17T14:46:02;8.15;;;1.35;;
9807;SDS011;4943;52.550;13.462;2022-09-17T14:48:33;3.97;;;0.70;;
9807;SDS011;4943;52.550;13.462;2022-09-17T14:51:21;0.63;;;0.57;;
9807;SDS011;4943;52.550;13.462;2022-09-17T14:56:54;2.35;;;0.60;;
9807;SDS011;4943;52.550;13.462;2022-09-17T14:59:26;1.00;;;0.40;;
9807;SDS011;4943;52.550;13.462;2022-09-17T15:02:01;3.63;;;1.08;;
9807;SDS011;4943;52.550;13.462;2022-09-17T15:04:30;1.85;;;0.60;;
9807;SDS011;4943;52.550;13.462;2022-09-17T15:07:07;3.05;;;0.75;;
9807;SDS011;4943;52.550;13.462;2022-09-17T15:09:39;3.13;;;0.52;;
9807;SDS011;4943;52.550;13.462;2022-09-17T15:12:07;1.90;;;0.90;;
9807;SDS011;4943;52.550;13.462;2022-09-17T15:14:36;0.40;;;0.30;;
9807;SDS011;4943;52.550;13.462;2022-09-17T15:17:06;3.67;;;0.40;;
9807;SDS011;4943;52.550;13.462;2022-09-17T15:19:41;3.10;;;0.70;;
9807;SDS011;4943;52.550;13.462;2022-09-17T15:22:15;0.95;;;0.47;;
9807;SDS011;4943;52.550;13.462;2022-09-17T15:24:48;1.08;;;0.57;;
9807;SDS011;4943;52.550;13.462;2022-09-17T15:27:21;0.75;;;0.50;;
9807;SDS011;4943;52.550;13.462;2022-09-17T15:29:53;0.52;;;0.47;;
9807;SDS011;4943;52.550;13.462;2022-09-17T15:32:26;1.40;;;0.40;;
9807;SDS011;4943;52.550;13.462;2022-09-17T15:35:08;0.60;;;0.30;;
9807;SDS011;4943;52.550;13.462;2022-09-17T15:37:44;0.98;;;0.57;;
9807;SDS011;4943;52.550;13.462;2022-09-17T15:40:37;2.22;;;0.50;;
9807;SDS011;4943;52.550;13.462;2022-09-17T15:43:12;5.38;;;1.60;;
9807;SDS011;4943;52.550;13.462;2022-09-17T15:45:44;3.70;;;0.70;;
9807;SDS011;4943;52.550;13.462;2022-09-17T15:48:19;1.88;;;0.70;;
9807;SDS011;4943;52.550;13.462;2022-09-17T15:51:00;1.15;;;0.57;;
9807;SDS011;4943;52.550;13.462;2022-09-17T15:53:30;2.17;;;0.60;;
9807;SDS011;4943;52.550;13.462;2022-09-17T15:56:02;0.95;;;0.50;;
9807;SDS011;4943;52.550;13.462;2022-09-17T15:58:35;1.80;;;0.70;;
9807;SDS011;4943;52.550;13.462;2022-09-17T16:04:18;4.25;;;1.38;;
9807;SDS011;4943;52.550;13.462;2022-09-17T16:06:55;3.22;;;0.98;;
9807;SDS011;4943;52.550;13.462;2022-09-17T16:09:35;0.85;;;0.50;;
9807;SDS011;4943;52.550;13.462;2022-09-17T16:12:15;0.93;;;0.50;;